Time;durP1;ratioP1;P1;durP2;ratioP2;P2;SDS_P1;SDS_P2;PMS_P1;PMS_P2;Temp;Humidity;BMP_temperature;BMP_pressure;BME280_temperature;BME280_humidity;BME280_pressure;Samples;Min_cycle;Max_cycle;Signal;HPM_P1;HPM_P2
2022/11/01 00:00:05;;;;;;;;;;;;;;;;;;4993789;28;5583;-59
2022/11/01 00:02:30;;;;;;;;;;;;;;;;;;4977024;28;5378;-61
2022/11/01 00:04:56;;;;;;;;;;;;;;;;;;4991234;28;1977;-60
2022/11/01 00:07:21;;;;;;;;;;;;;;;;;;4978872;28;5114;-60
2022/11/01 00:09:46;;;;;;;;;;;;;;;;;;4974044;28;5016;-60
2022/11/01 00:12:25;;;;;;;;;;;;;;;;;;4983115;28;4984;-60
2022/11/01 00:14:50;;;;;;;;;;;;;;;;;;4993524;28;4441;-60
2022/11/01 00:17:16;;;;;;;;;;;;;;;;;;4982902;28;928;-60
2022/11/01 00:19:41;;;;;;;;;;;;;;;;;;4973683;28;4671;-61
2022/11/01 00:22:06;;;;;;;;;;;;;;;;;;4993089;28;4848;-61
2022/11/01 00:24:31;;;;;;;;;;;;;;;;;;4993658;28;5030;-59
2022/11/01 00:26:57;;;;;;;;;;;;;;;;;;4994763;28;4460;-59
2022/11/01 00:29:34;;;;;;;;;;;;;;;;;;4993657;28;4662;-60
2022/11/01 00:32:08;;;;;;;;;;;;;;;;;;4970673;28;1536;-59
2022/11/01 00:34:33;;;;;;;;;;;;;;;;;;4955942;28;5064;-61
2022/11/01 00:37:03;;;;;;;;;;;;;;;;;;4993749;28;5166;-60
2022/11/01 00:39:28;;;;;;;;;;;;;;;;;;4992983;28;4927;-60
2022/11/01 00:41:53;;;;;;;;;;;;;;;;;;4975336;28;5061;-59
2022/11/01 00:44:19;;;;;;;;;;;;;;;;;;4992940;28;5672;-60
2022/11/01 00:46:44;;;;;;;;;;;;;;;;;;4993159;28;847;-59
2022/11/01 00:49:09;;;;;;;;;;;;;;;;;;4994012;28;5105;-59
2022/11/01 00:51:34;;;;;;;;;;;;;;;;;;4985451;28;4540;-59
2022/11/01 00:54:00;;;;;;;;;;;;;;;;;;4992341;28;5075;-59
2022/11/01 00:56:25;;;;;;;;;;;;;;;;;;4975612;28;4919;-59
2022/11/01 00:58:53;;;;;;;;;;;;;;;;;;4993492;28;959;-59
2022/11/01 01:01:18;;;;;;;;;;;;;;;;;;4983571;28;5089;-59
2022/11/01 01:03:43;;;;;;;;;;;;;;;;;;4979315;28;5066;-59
2022/11/01 01:06:08;;;;;;;;;;;;;;;;;;4979617;28;4699;-58
2022/11/01 01:08:34;;;;;;;;;;;;;;;;;;4994183;28;5121;-60
2022/11/01 01:10:59;;;;;;;;;;;;;;;;;;4975816;28;1133;-60
2022/11/01 01:13:33;;;;;;;;;;;;;;;;;;4994035;28;5023;-60
2022/11/01 01:15:58;;;;;;;;;;;;;;;;;;4994220;28;5089;-59
2022/11/01 01:18:23;;;;;;;;;;;;;;;;;;4973870;28;4816;-61
2022/11/01 01:20:49;;;;;;;;;;;;;;;;;;4991042;28;5141;-60
2022/11/01 01:23:34;;;;;;;;;;;;;;;;;;4993091;28;1168;-61
2022/11/01 01:25:59;;;;;;;;;;;;;;;;;;4973987;28;5193;-61
2022/11/01 01:28:24;;;;;;;;;;;;;;;;;;4973853;28;6002;-61
2022/11/01 01:30:50;;;;;;;;;;;;;;;;;;4991518;28;5160;-60
2022/11/01 01:33:15;;;;;;;;;;;;;;;;;;4992692;28;5490;-60
2022/11/01 01:35:40;;;;;;;;;;;;;;;;;;4990673;28;5490;-60
2022/11/01 01:38:05;;;;;;;;;;;;;;;;;;4992770;28;843;-60
2022/11/01 01:40:34;;;;;;;;;;;;;;;;;;4992481;28;5018;-60
2022/11/01 01:42:59;;;;;;;;;;;;;;;;;;4989927;28;4853;-60
2022/11/01 01:45:28;;;;;;;;;;;;;;;;;;4988803;28;5173;-60
2022/11/01 01:47:54;;;;;;;;;;;;;;;;;;4992114;28;4812;-61
2022/11/01 01:50:22;;;;;;;;;;;;;;;;;;4985942;28;4947;-60
2022/11/01 01:53:02;;;;;;;;;;;;;;;;;;5009314;28;1141;-60
2022/11/01 01:55:32;;;;;;;;;;;;;;;;;;5011347;28;4913;-60
2022/11/01 01:57:57;;;;;;;;;;;;;;;;;;5010427;28;4992;-60
2022/11/01 02:00:23;;;;;;;;;;;;;;;;;;4993157;28;5042;-60
2022/11/01 02:02:48;;;;;;;;;;;;;;;;;;4990716;28;4523;-60
2022/11/01 02:05:18;;;;;;;;;;;;;;;;;;4991448;28;1926;-61
2022/11/01 02:07:53;;;;;;;;;;;;;;;;;;4993559;28;4844;-60
2022/11/01 02:10:18;;;;;;;;;;;;;;;;;;4994630;28;4636;-60
2022/11/01 02:12:46;;;;;;;;;;;;;;;;;;4977117;28;4922;-61
2022/11/01 02:15:12;;;;;;;;;;;;;;;;;;5010647;28;4695;-60
2022/11/01 02:17:47;;;;;;;;;;;;;;;;;;4993997;28;4862;-60
2022/11/01 02:20:13;;;;;;;;;;;;;;;;;;4991702;28;4514;-60
2022/11/01 02:22:45;;;;;;;;;;;;;;;;;;5011903;28;4795;-60
2022/11/01 02:25:25;;;;;;;;;;;;;;;;;;4992780;28;5070;-60
2022/11/01 02:27:51;;;;;;;;;;;;;;;;;;4993236;28;4992;-61
2022/11/01 02:30:36;;;;;;;;;;;;;;;;;;4993170;28;5121;-60
2022/11/01 02:33:38;;;;;;;;;;;;;;;;;;5009875;28;4995;-60
2022/11/01 02:36:05;;;;;;;;;;;;;;;;;;4991672;28;4713;-60
2022/11/01 02:38:33;;;;;;;;;;;;;;;;;;4990722;28;5080;-61
2022/11/01 02:41:34;;;;;;;;;;;;;;;;;;4974324;28;900;-60
2022/11/01 02:44:03;;;;;;;;;;;;;;;;;;4990740;28;5124;-60
2022/11/01 02:49:16;;;;;;;;;;;;;;;;;;4999847;28;5094;-61
2022/11/01 02:51:42;;;;;;;;;;;;;;;;;;4981839;28;4983;-60
2022/11/01 02:54:09;;;;;;;;;;;;;;;;;;4992253;28;5100;-60
2022/11/01 02:56:35;;;;;;;;;;;;;;;;;;5008892;28;4960;-60
2022/11/01 02:59:02;;;;;;;;;;;;;;;;;;4992431;28;1103;-60
2022/11/01 03:01:27;;;;;;;;;;;;;;;;;;4987629;28;5009;-60
2022/11/01 03:03:52;;;;;;;;;;;;;;;;;;4989753;28;4603;-61
2022/11/01 03:06:32;;;;;;;;;;;;;;;;;;4991531;28;5068;-60
2022/11/01 03:09:03;;;;;;;;;;;;;;;;;;4991147;28;5747;-60
2022/11/01 03:11:31;;;;;;;;;;;;;;;;;;4991122;28;4564;-61
2022/11/01 03:13:57;;;;;;;;;;;;;;;;;;5006460;28;1000;-60
2022/11/01 03:16:31;;;;;;;;;;;;;;;;;;5009258;28;5096;-60
2022/11/01 03:18:59;;;;;;;;;;;;;;;;;;5008434;28;5045;-60
2022/11/01 03:21:25;;;;;;;;;;;;;;;;;;4991146;28;4891;-60
2022/11/01 03:23:55;;;;;;;;;;;;;;;;;;5009437;28;4997;-60
2022/11/01 03:26:23;;;;;;;;;;;;;;;;;;5009688;28;5021;-60
2022/11/01 03:28:49;;;;;;;;;;;;;;;;;;5008577;28;1738;-60
2022/11/01 03:31:28;;;;;;;;;;;;;;;;;;5000846;28;4933;-60
2022/11/01 03:33:55;;;;;;;;;;;;;;;;;;4988491;28;5118;-61
2022/11/01 03:36:21;;;;;;;;;;;;;;;;;;4990478;28;4956;-60
2022/11/01 03:39:01;;;;;;;;;;;;;;;;;;4991855;28;5281;-60
2022/11/01 03:41:27;;;;;;;;;;;;;;;;;;4975593;28;4964;-60
2022/11/01 03:43:52;;;;;;;;;;;;;;;;;;4992070;28;978;-61
2022/11/01 03:46:17;;;;;;;;;;;;;;;;;;4988210;28;5114;-61
2022/11/01 03:48:43;;;;;;;;;;;;;;;;;;4981390;28;5025;-60
2022/11/01 03:51:08;;;;;;;;;;;;;;;;;;4985044;28;5134;-61
2022/11/01 03:53:33;;;;;;;;;;;;;;;;;;4972439;28;5048;-61
2022/11/01 03:55:59;;;;;;;;;;;;;;;;;;4990227;28;971;-61
2022/11/01 03:58:24;;;;;;;;;;;;;;;;;;4989546;28;5066;-60
2022/11/01 04:00:49;;;;;;;;;;;;;;;;;;4986905;28;5067;-61
2022/11/01 04:03:14;;;;;;;;;;;;;;;;;;4978706;28;5069;-60
2022/11/01 04:05:40;;;;;;;;;;;;;;;;;;4972149;28;5094;-60
2022/11/01 04:08:10;;;;;;;;;;;;;;;;;;4973305;28;1125;-60
2022/11/01 04:10:36;;;;;;;;;;;;;;;;;;4993169;28;4823;-60
2022/11/01 04:13:01;;;;;;;;;;;;;;;;;;4989696;28;5368;-60
2022/11/01 04:21:02;;;;;;;;;;;;;;;;;;4992728;28;4884;-61
2022/11/01 04:23:27;;;;;;;;;;;;;;;;;;4992615;28;5096;-61
2022/11/01 04:25:52;;;;;;;;;;;;;;;;;;4992898;28;1911;-60
2022/11/01 04:28:18;;;;;;;;;;;;;;;;;;5005184;28;5019;-61
2022/11/01 04:30:43;;;;;;;;;;;;;;;;;;5010387;28;5029;-61
2022/11/01 04:33:08;;;;;;;;;;;;;;;;;;4990361;28;5168;-61
2022/11/01 04:35:37;;;;;;;;;;;;;;;;;;4992837;28;5007;-61
2022/11/01 04:38:02;;;;;;;;;;;;;;;;;;4993012;28;1194;-60
2022/11/01 04:40:27;;;;;;;;;;;;;;;;;;4992556;28;4963;-61
2022/11/01 04:42:53;;;;;;;;;;;;;;;;;;4991227;28;4546;-61
2022/11/01 04:45:18;;;;;;;;;;;;;;;;;;4992694;28;4538;-61
2022/11/01 04:47:50;;;;;;;;;;;;;;;;;;4993018;28;5072;-60
2022/11/01 04:50:16;;;;;;;;;;;;;;;;;;4993344;28;1089;-61
2022/11/01 04:52:42;;;;;;;;;;;;;;;;;;4992267;28;4914;-61
2022/11/01 04:55:07;;;;;;;;;;;;;;;;;;4974850;28;4927;-61
2022/11/01 04:57:39;;;;;;;;;;;;;;;;;;4990973;28;5060;-61
2022/11/01 05:00:05;;;;;;;;;;;;;;;;;;4991964;28;4953;-60
2022/11/01 05:02:30;;;;;;;;;;;;;;;;;;4989575;28;4994;-61
2022/11/01 05:04:55;;;;;;;;;;;;;;;;;;4992595;28;1918;-60
2022/11/01 05:07:21;;;;;;;;;;;;;;;;;;4974124;28;4999;-61
2022/11/01 05:09:46;;;;;;;;;;;;;;;;;;4992145;28;4506;-60
2022/11/01 05:12:11;;;;;;;;;;;;;;;;;;4969918;28;5391;-61
2022/11/01 05:14:47;;;;;;;;;;;;;;;;;;4992022;28;4489;-60
2022/11/01 05:17:12;;;;;;;;;;;;;;;;;;4990685;28;3171;-60
2022/11/01 05:19:38;;;;;;;;;;;;;;;;;;4991308;28;4869;-61
2022/11/01 05:22:03;;;;;;;;;;;;;;;;;;4991767;28;4825;-61
2022/11/01 05:24:28;;;;;;;;;;;;;;;;;;4991456;28;4967;-61
2022/11/01 05:26:53;;;;;;;;;;;;;;;;;;4991262;28;5161;-59
2022/11/01 05:29:19;;;;;;;;;;;;;;;;;;5011040;28;4951;-59
2022/11/01 05:31:52;;;;;;;;;;;;;;;;;;4981484;28;1757;-59
2022/11/01 05:34:17;;;;;;;;;;;;;;;;;;4954338;28;4699;-60
2022/11/01 05:36:43;;;;;;;;;;;;;;;;;;4971363;28;5124;-60
2022/11/01 05:39:08;;;;;;;;;;;;;;;;;;4971628;28;5436;-60
2022/11/01 05:41:33;;;;;;;;;;;;;;;;;;4977753;28;5027;-60
2022/11/01 05:44:05;;;;;;;;;;;;;;;;;;4991978;28;951;-59
2022/11/01 05:46:30;;;;;;;;;;;;;;;;;;4991052;28;5105;-62
2022/11/01 05:48:55;;;;;;;;;;;;;;;;;;4990713;28;5065;-59
2022/11/01 05:51:21;;;;;;;;;;;;;;;;;;4991783;28;5196;-60
2022/11/01 05:53:47;;;;;;;;;;;;;;;;;;4990605;28;4827;-60
2022/11/01 05:56:13;;;;;;;;;;;;;;;;;;4989042;28;1829;-59
2022/11/01 05:58:38;;;;;;;;;;;;;;;;;;4991073;28;5033;-60
2022/11/01 06:01:04;;;;;;;;;;;;;;;;;;4968022;28;5026;-60
2022/11/01 06:03:29;;;;;;;;;;;;;;;;;;4990246;28;5144;-59
2022/11/01 06:05:55;;;;;;;;;;;;;;;;;;4990417;28;4504;-61
2022/11/01 06:08:30;;;;;;;;;;;;;;;;;;4972631;28;4969;-60
2022/11/01 06:11:03;;;;;;;;;;;;;;;;;;4992205;28;877;-59
2022/11/01 06:13:28;;;;;;;;;;;;;;;;;;4988077;28;4626;-60
2022/11/01 06:15:59;;;;;;;;;;;;;;;;;;4984751;28;5252;-60
2022/11/01 06:18:25;;;;;;;;;;;;;;;;;;5010310;28;4996;-60
2022/11/01 06:20:57;;;;;;;;;;;;;;;;;;4999144;28;5110;-59
2022/11/01 06:23:29;;;;;;;;;;;;;;;;;;4989970;28;5124;-59
2022/11/01 06:25:58;;;;;;;;;;;;;;;;;;4990713;28;1914;-59
2022/11/01 06:28:23;;;;;;;;;;;;;;;;;;5002322;28;4990;-60
2022/11/01 06:30:49;;;;;;;;;;;;;;;;;;4995023;28;4928;-60
2022/11/01 06:33:14;;;;;;;;;;;;;;;;;;4971051;28;4996;-60
2022/11/01 06:35:39;;;;;;;;;;;;;;;;;;4974233;28;5210;-61
2022/11/01 06:38:07;;;;;;;;;;;;;;;;;;4985484;28;2998;-60
2022/11/01 06:40:33;;;;;;;;;;;;;;;;;;4977790;28;5022;-60
2022/11/01 06:43:01;;;;;;;;;;;;;;;;;;4984775;28;4673;-60
2022/11/01 06:45:26;;;;;;;;;;;;;;;;;;4984291;28;4672;-61
2022/11/01 06:48:02;;;;;;;;;;;;;;;;;;4985550;28;5098;-59
2022/11/01 06:50:28;;;;;;;;;;;;;;;;;;4981794;28;5158;-59
2022/11/01 06:52:57;;;;;;;;;;;;;;;;;;4987751;28;2728;-59
2022/11/01 06:55:22;;;;;;;;;;;;;;;;;;4977000;28;4993;-60
2022/11/01 06:57:54;;;;;;;;;;;;;;;;;;4976973;28;5221;-60
2022/11/01 07:00:32;;;;;;;;;;;;;;;;;;4967231;28;5049;-59
2022/11/01 07:02:59;;;;;;;;;;;;;;;;;;4952565;28;4721;-58
2022/11/01 07:05:24;;;;;;;;;;;;;;;;;;4986107;28;4911;-58
2022/11/01 07:07:49;;;;;;;;;;;;;;;;;;4986257;28;3232;-59
2022/11/01 07:10:15;;;;;;;;;;;;;;;;;;4970842;28;4888;-58
2022/11/01 07:12:40;;;;;;;;;;;;;;;;;;4980230;28;4962;-58
2022/11/01 07:15:05;;;;;;;;;;;;;;;;;;4990418;28;5154;-58
2022/11/01 07:17:31;;;;;;;;;;;;;;;;;;4991118;28;5081;-58
2022/11/01 07:19:56;;;;;;;;;;;;;;;;;;4990656;28;4791;-59
2022/11/01 07:22:21;;;;;;;;;;;;;;;;;;4991606;28;4974;-59
2022/11/01 07:24:46;;;;;;;;;;;;;;;;;;4971398;28;5171;-59
2022/11/01 07:27:12;;;;;;;;;;;;;;;;;;4973532;28;5024;-60
2022/11/01 07:29:40;;;;;;;;;;;;;;;;;;5010301;28;5095;-60
2022/11/01 07:32:05;;;;;;;;;;;;;;;;;;4987986;28;3229;-59
2022/11/01 07:34:37;;;;;;;;;;;;;;;;;;4990751;28;5013;-58
2022/11/01 07:37:03;;;;;;;;;;;;;;;;;;4991026;28;4556;-59
2022/11/01 07:39:31;;;;;;;;;;;;;;;;;;4973365;28;5006;-59
2022/11/01 07:41:57;;;;;;;;;;;;;;;;;;4990591;28;4858;-58
2022/11/01 07:44:22;;;;;;;;;;;;;;;;;;4982530;28;5247;-59
2022/11/01 07:46:47;;;;;;;;;;;;;;;;;;4982395;28;1544;-59
2022/11/01 07:49:13;;;;;;;;;;;;;;;;;;4976215;28;5151;-60
2022/11/01 07:51:38;;;;;;;;;;;;;;;;;;4993235;28;4569;-60
2022/11/01 07:54:03;;;;;;;;;;;;;;;;;;4992270;28;5024;-60
2022/11/01 07:56:28;;;;;;;;;;;;;;;;;;4969356;28;4911;-60
2022/11/01 07:58:54;;;;;;;;;;;;;;;;;;4989007;28;2798;-60
2022/11/01 08:01:26;;;;;;;;;;;;;;;;;;4988207;28;4983;-59
2022/11/01 08:03:52;;;;;;;;;;;;;;;;;;4993832;28;5227;-61
2022/11/01 08:06:17;;;;;;;;;;;;;;;;;;4993621;28;4501;-59
2022/11/01 08:08:43;;;;;;;;;;;;;;;;;;4993701;28;4638;-59
2022/11/01 08:11:08;;;;;;;;;;;;;;;;;;4994311;28;870;-58
2022/11/01 08:13:34;;;;;;;;;;;;;;;;;;4994538;28;5203;-60
2022/11/01 08:15:59;;;;;;;;;;;;;;;;;;4993986;28;5030;-60
2022/11/01 08:18:24;;;;;;;;;;;;;;;;;;4993325;28;4700;-59
2022/11/01 08:20:50;;;;;;;;;;;;;;;;;;4975375;28;5326;-60
2022/11/01 08:23:15;;;;;;;;;;;;;;;;;;4993777;28;1303;-60
2022/11/01 08:25:40;;;;;;;;;;;;;;;;;;4994496;28;4982;-60
2022/11/01 08:28:11;;;;;;;;;;;;;;;;;;5011229;28;4895;-58
2022/11/01 08:30:36;;;;;;;;;;;;;;;;;;5009127;28;4463;-58
2022/11/01 08:33:02;;;;;;;;;;;;;;;;;;4975685;28;4957;-59
2022/11/01 08:35:27;;;;;;;;;;;;;;;;;;4992861;28;5012;-59
2022/11/01 08:37:53;;;;;;;;;;;;;;;;;;4993902;28;1007;-60
2022/11/01 08:40:18;;;;;;;;;;;;;;;;;;4975912;28;4950;-61
2022/11/01 08:42:43;;;;;;;;;;;;;;;;;;4994277;28;4854;-59
2022/11/01 08:45:10;;;;;;;;;;;;;;;;;;4974302;28;5440;-60
2022/11/01 08:47:35;;;;;;;;;;;;;;;;;;4979685;28;4542;-60
2022/11/01 08:50:01;;;;;;;;;;;;;;;;;;4976306;28;1339;-58
2022/11/01 08:52:31;;;;;;;;;;;;;;;;;;4973525;28;5094;-60
2022/11/01 08:54:57;;;;;;;;;;;;;;;;;;4986665;28;4874;-60
2022/11/01 08:57:31;;;;;;;;;;;;;;;;;;4987964;28;5108;-58
2022/11/01 08:59:56;;;;;;;;;;;;;;;;;;4992908;28;5064;-58
2022/11/01 09:02:30;;;;;;;;;;;;;;;;;;4982153;28;5128;-58
2022/11/01 09:04:56;;;;;;;;;;;;;;;;;;4979344;28;1914;-58
2022/11/01 09:07:35;;;;;;;;;;;;;;;;;;4993236;28;4998;-58
2022/11/01 09:10:00;;;;;;;;;;;;;;;;;;4993148;28;4490;-58
2022/11/01 09:12:25;;;;;;;;;;;;;;;;;;4992783;28;5163;-58
2022/11/01 09:14:51;;;;;;;;;;;;;;;;;;4992908;28;5087;-60
2022/11/01 09:17:16;;;;;;;;;;;;;;;;;;4983238;28;1159;-60
2022/11/01 09:19:41;;;;;;;;;;;;;;;;;;4972849;28;4899;-60
2022/11/01 09:22:07;;;;;;;;;;;;;;;;;;4992826;28;4458;-63
2022/11/01 09:24:32;;;;;;;;;;;;;;;;;;4993024;28;4452;-60
2022/11/01 09:26:58;;;;;;;;;;;;;;;;;;5001099;28;5050;-60
2022/11/01 09:29:32;;;;;;;;;;;;;;;;;;4981775;28;5058;-58
2022/11/01 09:31:58;;;;;;;;;;;;;;;;;;4978388;28;1532;-59
2022/11/01 09:34:23;;;;;;;;;;;;;;;;;;4974723;28;4856;-61
2022/11/01 09:36:48;;;;;;;;;;;;;;;;;;4986502;28;4994;-58
2022/11/01 09:39:15;;;;;;;;;;;;;;;;;;4986734;28;5125;-58
2022/11/01 09:41:49;;;;;;;;;;;;;;;;;;5001603;28;4675;-58
2022/11/01 09:44:16;;;;;;;;;;;;;;;;;;4977471;28;2406;-58
2022/11/01 09:47:07;;;;;;;;;;;;;;;;;;4985072;28;5467;-58
2022/11/01 09:49:32;;;;;;;;;;;;;;;;;;4980640;28;5093;-57
2022/11/01 09:51:58;;;;;;;;;;;;;;;;;;4989919;28;4734;-59
2022/11/01 09:54:23;;;;;;;;;;;;;;;;;;5006407;28;4732;-61
2022/11/01 09:56:50;;;;;;;;;;;;;;;;;;4989648;28;5054;-59
2022/11/01 09:59:15;;;;;;;;;;;;;;;;;;4990626;28;2984;-62
2022/11/01 10:01:40;;;;;;;;;;;;;;;;;;5007483;28;4963;-62
2022/11/01 10:04:05;;;;;;;;;;;;;;;;;;4998986;28;6476;-62
2022/11/01 10:06:34;;;;;;;;;;;;;;;;;;5010481;28;5118;-61
2022/11/01 10:12:12;;;;;;;;;;;;;;;;;;4992883;28;4882;-60
2022/11/01 10:15:00;;;;;;;;;;;;;;;;;;5003743;28;5083;-67
2022/11/01 10:17:45;;;;;;;;;;;;;;;;;;5007317;28;5189;-62
2022/11/01 10:20:10;;;;;;;;;;;;;;;;;;5007777;28;4404;-60
2022/11/01 10:22:35;;;;;;;;;;;;;;;;;;5004548;28;4415;-61
2022/11/01 10:25:01;;;;;;;;;;;;;;;;;;4993517;28;5283;-60
2022/11/01 10:27:30;;;;;;;;;;;;;;;;;;4990522;28;4852;-69
2022/11/01 10:29:59;;;;;;;;;;;;;;;;;;5006874;28;4903;-60
2022/11/01 10:32:30;;;;;;;;;;;;;;;;;;4995805;28;5156;-61
2022/11/01 10:34:56;;;;;;;;;;;;;;;;;;4991970;28;2837;-60
2022/11/01 10:37:30;;;;;;;;;;;;;;;;;;5009302;28;5021;-61
2022/11/01 10:39:56;;;;;;;;;;;;;;;;;;5001722;28;5087;-61
2022/11/01 10:42:22;;;;;;;;;;;;;;;;;;5003678;28;5039;-61
2022/11/01 10:44:53;;;;;;;;;;;;;;;;;;5007318;28;4763;-60
2022/11/01 10:47:19;;;;;;;;;;;;;;;;;;5003036;28;5217;-60
2022/11/01 10:49:46;;;;;;;;;;;;;;;;;;4996462;28;2774;-63
2022/11/01 10:52:32;;;;;;;;;;;;;;;;;;5005199;28;4596;-63
2022/11/01 10:54:57;;;;;;;;;;;;;;;;;;5006680;28;4627;-61
2022/11/01 10:57:35;;;;;;;;;;;;;;;;;;5005323;28;5005;-62
2022/11/01 11:00:00;;;;;;;;;;;;;;;;;;4986414;28;5122;-61
2022/11/01 11:02:27;;;;;;;;;;;;;;;;;;4998361;28;5100;-62
2022/11/01 11:04:52;;;;;;;;;;;;;;;;;;4990620;28;3095;-65
2022/11/01 11:07:18;;;;;;;;;;;;;;;;;;5013879;28;4881;-64
2022/11/01 11:09:43;;;;;;;;;;;;;;;;;;4990233;28;4857;-63
2022/11/01 11:12:17;;;;;;;;;;;;;;;;;;4998222;28;5323;-62
2022/11/01 11:14:42;;;;;;;;;;;;;;;;;;4956982;28;5029;-61
2022/11/01 11:17:09;;;;;;;;;;;;;;;;;;4999807;28;944;-62
2022/11/01 11:19:37;;;;;;;;;;;;;;;;;;4994306;28;4627;-63
2022/11/01 11:22:04;;;;;;;;;;;;;;;;;;5015706;28;4619;-63
2022/11/01 11:24:35;;;;;;;;;;;;;;;;;;5018199;28;4498;-63
2022/11/01 11:27:01;;;;;;;;;;;;;;;;;;5013837;28;5365;-62
2022/11/01 11:29:26;;;;;;;;;;;;;;;;;;4998461;28;4762;-61
2022/11/01 11:31:55;;;;;;;;;;;;;;;;;;4996417;28;1248;-63
2022/11/01 11:34:27;;;;;;;;;;;;;;;;;;4994599;28;4711;-64
2022/11/01 11:36:53;;;;;;;;;;;;;;;;;;5005055;28;4768;-64
2022/11/01 11:39:29;;;;;;;;;;;;;;;;;;4993044;28;4863;-65
2022/11/01 11:42:08;;;;;;;;;;;;;;;;;;5012035;28;5099;-65
2022/11/01 11:44:34;;;;;;;;;;;;;;;;;;5017530;28;4537;-66
2022/11/01 11:46:59;;;;;;;;;;;;;;;;;;5026368;28;1757;-64
2022/11/01 11:49:25;;;;;;;;;;;;;;;;;;5009765;28;5014;-60
2022/11/01 11:52:01;;;;;;;;;;;;;;;;;;4994971;28;5128;-62
2022/11/01 11:54:33;;;;;;;;;;;;;;;;;;5002868;28;4910;-66
2022/11/01 11:57:07;;;;;;;;;;;;;;;;;;5002549;28;4543;-65
2022/11/01 11:59:50;;;;;;;;;;;;;;;;;;5014877;28;4923;-63
2022/11/01 12:02:27;;;;;;;;;;;;;;;;;;5004791;28;1641;-68
2022/11/01 12:04:59;;;;;;;;;;;;;;;;;;5007939;28;5016;-68
2022/11/01 12:07:59;;;;;;;;;;;;;;;;;;5013374;28;5045;-68
2022/11/01 12:10:39;;;;;;;;;;;;;;;;;;4999055;28;4986;-68
2022/11/01 12:13:23;;;;;;;;;;;;;;;;;;5006612;28;5022;-68
2022/11/01 12:15:49;;;;;;;;;;;;;;;;;;4979619;28;5384;-68
2022/11/01 12:18:25;;;;;;;;;;;;;;;;;;4995258;28;5079;-67
2022/11/01 12:21:03;;;;;;;;;;;;;;;;;;5014239;28;5050;-67
2022/11/01 12:23:33;;;;;;;;;;;;;;;;;;5021417;28;5079;-67
2022/11/01 12:25:59;;;;;;;;;;;;;;;;;;5003750;28;1879;-67
2022/11/01 12:28:37;;;;;;;;;;;;;;;;;;4985511;28;4641;-68
2022/11/01 12:31:04;;;;;;;;;;;;;;;;;;5008789;28;4992;-68
2022/11/01 12:33:55;;;;;;;;;;;;;;;;;;5008153;28;4984;-68
2022/11/01 12:36:23;;;;;;;;;;;;;;;;;;4913892;29;5085;-68
2022/11/01 12:39:08;;;;;;;;;;;;;;;;;;5001666;28;5043;-67
2022/11/01 12:41:36;;;;;;;;;;;;;;;;;;4995816;28;4983;-67
2022/11/01 12:44:04;;;;;;;;;;;;;;;;;;4995529;28;2097;-68
2022/11/01 12:46:34;;;;;;;;;;;;;;;;;;5007842;28;4964;-64
2022/11/01 12:52:05;;;;;;;;;;;;;;;;;;4989734;28;5006;-63
2022/11/01 12:54:35;;;;;;;;;;;;;;;;;;4988219;28;4478;-64
2022/11/01 13:03:40;;;;;;;;;;;;;;;;;;5000630;28;5088;-63
2022/11/01 13:09:05;;;;;;;;;;;;;;;;;;5009025;28;4886;-62
2022/11/01 13:14:57;;;;;;;;;;;;;;;;;;4997929;28;5090;-63
2022/11/01 13:17:28;;;;;;;;;;;;;;;;;;5000031;28;4945;-62
2022/11/01 13:19:53;;;;;;;;;;;;;;;;;;4999521;28;4507;-61
2022/11/01 13:22:25;;;;;;;;;;;;;;;;;;4992677;28;5137;-62
2022/11/01 13:24:55;;;;;;;;;;;;;;;;;;5007560;28;4977;-61
2022/11/01 13:27:24;;;;;;;;;;;;;;;;;;4984258;28;5085;-61
2022/11/01 13:29:53;;;;;;;;;;;;;;;;;;4999746;28;5197;-61
2022/11/01 13:32:18;;;;;;;;;;;;;;;;;;4982618;28;1515;-62
2022/11/01 13:34:46;;;;;;;;;;;;;;;;;;5016024;28;5200;-61
2022/11/01 13:37:15;;;;;;;;;;;;;;;;;;5015441;28;5194;-62
2022/11/01 13:39:49;;;;;;;;;;;;;;;;;;5009665;28;5012;-61
2022/11/01 13:42:16;;;;;;;;;;;;;;;;;;4993627;28;5111;-61
2022/11/01 13:48:16;;;;;;;;;;;;;;;;;;5011138;28;5050;-61
2022/11/01 13:50:57;;;;;;;;;;;;;;;;;;4973317;28;4992;-61
2022/11/01 13:53:33;;;;;;;;;;;;;;;;;;4991239;28;5154;-61
2022/11/01 13:56:03;;;;;;;;;;;;;;;;;;4975028;28;1143;-61
2022/11/01 13:58:31;;;;;;;;;;;;;;;;;;4952646;28;5039;-61
2022/11/01 14:00:56;;;;;;;;;;;;;;;;;;4967816;28;4476;-61
2022/11/01 14:03:26;;;;;;;;;;;;;;;;;;4966355;28;4967;-62
2022/11/01 14:06:10;;;;;;;;;;;;;;;;;;4970777;28;5453;-62
2022/11/01 14:08:48;;;;;;;;;;;;;;;;;;4980078;28;5144;-62
2022/11/01 14:11:33;;;;;;;;;;;;;;;;;;4981642;28;3181;-62
2022/11/01 14:13:58;;;;;;;;;;;;;;;;;;4962032;28;4666;-62
2022/11/01 14:16:24;;;;;;;;;;;;;;;;;;4984262;28;5162;-62
2022/11/01 14:19:01;;;;;;;;;;;;;;;;;;4990159;28;5191;-62
2022/11/01 14:21:34;;;;;;;;;;;;;;;;;;4992851;28;4942;-62
2022/11/01 14:24:05;;;;;;;;;;;;;;;;;;5000536;28;5205;-62
2022/11/01 14:26:38;;;;;;;;;;;;;;;;;;4993277;28;5716;-62
2022/11/01 14:29:07;;;;;;;;;;;;;;;;;;4986270;28;1320;-65
2022/11/01 14:31:48;;;;;;;;;;;;;;;;;;4974035;28;4999;-63
2022/11/01 14:34:21;;;;;;;;;;;;;;;;;;4971843;28;5025;-63
2022/11/01 14:36:49;;;;;;;;;;;;;;;;;;4972937;28;5224;-63
2022/11/01 14:39:15;;;;;;;;;;;;;;;;;;4974555;28;4523;-63
2022/11/01 14:41:41;;;;;;;;;;;;;;;;;;4982970;28;5117;-63
2022/11/01 14:44:10;;;;;;;;;;;;;;;;;;4974966;28;1044;-66
2022/11/01 14:46:36;;;;;;;;;;;;;;;;;;4972165;28;4676;-63
2022/11/01 14:49:19;;;;;;;;;;;;;;;;;;4972634;28;4993;-68
2022/11/01 14:51:44;;;;;;;;;;;;;;;;;;4973920;28;5210;-62
2022/11/01 14:57:31;;;;;;;;;;;;;;;;;;4995241;28;5036;-63
2022/11/01 14:59:57;;;;;;;;;;;;;;;;;;4966634;28;4678;-62
2022/11/01 15:02:22;;;;;;;;;;;;;;;;;;4969856;28;4596;-62
2022/11/01 15:04:57;;;;;;;;;;;;;;;;;;4992557;28;2009;-62
2022/11/01 15:07:40;;;;;;;;;;;;;;;;;;4991498;28;5088;-62
2022/11/01 15:10:06;;;;;;;;;;;;;;;;;;4985596;28;5080;-63
2022/11/01 15:12:35;;;;;;;;;;;;;;;;;;4978498;28;4903;-64
2022/11/01 15:15:00;;;;;;;;;;;;;;;;;;4958286;28;5007;-62
2022/11/01 15:17:27;;;;;;;;;;;;;;;;;;4998405;28;5124;-63
2022/11/01 15:20:23;;;;;;;;;;;;;;;;;;4993465;28;1220;-62
2022/11/01 15:22:51;;;;;;;;;;;;;;;;;;4984110;28;4651;-63
2022/11/01 15:25:25;;;;;;;;;;;;;;;;;;4955225;28;5366;-63
2022/11/01 15:28:03;;;;;;;;;;;;;;;;;;4963019;28;5096;-62
2022/11/01 15:30:31;;;;;;;;;;;;;;;;;;4954620;28;5019;-62
2022/11/01 15:36:01;;;;;;;;;;;;;;;;;;4979109;28;5112;-63
2022/11/01 15:38:27;;;;;;;;;;;;;;;;;;4986291;28;4933;-64
2022/11/01 15:40:52;;;;;;;;;;;;;;;;;;4966676;28;3003;-68
2022/11/01 15:43:21;;;;;;;;;;;;;;;;;;4973000;28;5058;-68
2022/11/01 15:45:51;;;;;;;;;;;;;;;;;;4990060;28;4456;-68
2022/11/01 15:48:17;;;;;;;;;;;;;;;;;;4990843;28;4995;-65
2022/11/01 15:50:45;;;;;;;;;;;;;;;;;;4985729;28;4554;-66
2022/11/01 15:56:39;;;;;;;;;;;;;;;;;;5014302;28;4549;-67
2022/11/01 15:59:05;;;;;;;;;;;;;;;;;;5013808;28;4730;-62
2022/11/01 16:01:31;;;;;;;;;;;;;;;;;;5013729;28;5009;-62
2022/11/01 16:04:06;;;;;;;;;;;;;;;;;;4994486;28;4507;-64
2022/11/01 16:09:52;;;;;;;;;;;;;;;;;;4997685;28;4955;-64
2022/11/01 16:12:21;;;;;;;;;;;;;;;;;;4998004;28;4436;-64
2022/11/01 16:18:10;;;;;;;;;;;;;;;;;;4997258;28;5043;-64
2022/11/01 16:23:38;;;;;;;;;;;;;;;;;;5016626;28;4845;-63
2022/11/01 16:26:05;;;;;;;;;;;;;;;;;;5006962;28;4199;-63
2022/11/01 16:28:35;;;;;;;;;;;;;;;;;;4995987;28;5231;-61
2022/11/01 16:31:00;;;;;;;;;;;;;;;;;;5005835;28;4806;-63
2022/11/01 16:36:33;;;;;;;;;;;;;;;;;;5036288;28;4442;-64
2022/11/01 16:38:58;;;;;;;;;;;;;;;;;;5035928;28;4459;-63
2022/11/01 16:50:37;;;;;;;;;;;;;;;;;;4995436;28;5597;-65
2022/11/01 16:56:07;;;;;;;;;;;;;;;;;;4995767;28;4538;-70
2022/11/01 16:58:32;;;;;;;;;;;;;;;;;;5002618;28;5728;-69
2022/11/01 17:01:00;;;;;;;;;;;;;;;;;;4994099;28;5045;-68
2022/11/01 17:03:25;;;;;;;;;;;;;;;;;;4989908;28;5098;-63
2022/11/01 17:05:51;;;;;;;;;;;;;;;;;;4985348;28;5103;-65
2022/11/01 17:08:20;;;;;;;;;;;;;;;;;;4983804;28;2968;-62
2022/11/01 17:11:00;;;;;;;;;;;;;;;;;;4999119;28;5424;-63
2022/11/01 17:13:30;;;;;;;;;;;;;;;;;;5026647;28;4445;-62
2022/11/01 17:15:55;;;;;;;;;;;;;;;;;;4996478;28;5077;-63
2022/11/01 17:18:35;;;;;;;;;;;;;;;;;;4986446;28;4496;-63
2022/11/01 17:21:01;;;;;;;;;;;;;;;;;;5001817;28;5152;-63
2022/11/01 17:23:33;;;;;;;;;;;;;;;;;;4988655;28;5186;-62
2022/11/01 17:25:58;;;;;;;;;;;;;;;;;;5011338;28;1969;-62
2022/11/01 17:28:24;;;;;;;;;;;;;;;;;;5002638;28;5312;-62
2022/11/01 17:30:49;;;;;;;;;;;;;;;;;;5007776;28;4788;-63
2022/11/01 17:33:48;;;;;;;;;;;;;;;;;;5010612;28;4855;-63
2022/11/01 17:36:14;;;;;;;;;;;;;;;;;;5011674;28;4457;-62
2022/11/01 17:38:39;;;;;;;;;;;;;;;;;;4990854;28;5119;-63
2022/11/01 17:41:06;;;;;;;;;;;;;;;;;;4997543;28;2834;-62
2022/11/01 17:43:31;;;;;;;;;;;;;;;;;;5000372;28;5031;-63
2022/11/01 17:45:56;;;;;;;;;;;;;;;;;;4987054;28;5056;-62
2022/11/01 17:48:22;;;;;;;;;;;;;;;;;;5002956;28;5083;-63
2022/11/01 17:50:47;;;;;;;;;;;;;;;;;;4991926;28;4996;-62
2022/11/01 17:53:13;;;;;;;;;;;;;;;;;;4982653;28;2045;-63
2022/11/01 17:55:39;;;;;;;;;;;;;;;;;;4972121;28;4796;-61
2022/11/01 17:58:04;;;;;;;;;;;;;;;;;;4989802;28;5241;-64
2022/11/01 18:00:30;;;;;;;;;;;;;;;;;;4967807;28;5109;-63
2022/11/01 18:02:55;;;;;;;;;;;;;;;;;;4978363;28;4697;-62
2022/11/01 18:05:20;;;;;;;;;;;;;;;;;;4990046;28;5115;-64
2022/11/01 18:07:46;;;;;;;;;;;;;;;;;;4973639;28;1714;-63
2022/11/01 18:10:16;;;;;;;;;;;;;;;;;;4978174;28;4825;-61
2022/11/01 18:13:01;;;;;;;;;;;;;;;;;;4977558;28;4516;-67
2022/11/01 18:16:01;;;;;;;;;;;;;;;;;;4970816;28;5044;-62
2022/11/01 18:21:38;;;;;;;;;;;;;;;;;;4982410;28;5076;-62